EDT,Max TemperatureF,Mean TemperatureF,Min TemperatureF,Max Dew PointF,MeanDew PointF,Min DewpointF,Max Humidity, Mean Humidity, Min Humidity, Max Sea Level PressureIn, Mean Sea Level PressureIn, Min Sea Level PressureIn, Max VisibilityMiles, Mean VisibilityMiles, Min VisibilityMiles, Max Wind SpeedMPH, Mean Wind SpeedMPH, Max Gust SpeedMPH,PrecipitationIn, CloudCover, Events, WindDirDegrees
2012-10-1,70,60,51,52,47,45,83,67,46,29.97,29.88,29.82,10,10,10,15,7,25,0.00,0,,267
2012-10-2,68,64,59,66,60,52,100,89,66,30.04,30.00,29.98,10,7,1,8,3,,0.25,8,Rain,93
2012-10-3,75,70,64,72,67,64,100,97,83,30.13,30.06,29.98,10,4,0,8,4,,0.01,8,Fog,74
2012-10-4,71,68,66,68,67,65,100,99,88,30.13,30.10,30.04,6,2,0,10,1,,0.02,7,Fog-Rain,134
2012-10-5,78,68,60,65,61,52,100,85,42,30.07,30.02,29.94,10,6,0,10,4,,0.00,3,Fog,275
2012-10-6,75,64,54,64,56,42,93,76,59,30.00,29.88,29.77,10,9,7,20,7,25,0.00,1,,253
2012-10-7,54,50,46,48,43,37,97,77,57,30.12,30.07,30.00,10,10,4,16,4,24,0.14,6,Rain,353
2012-10-8,54,48,42,45,43,41,96,79,62,30.29,30.22,30.12,10,10,8,7,3,,0.00,3,,5
2012-10-9,57,54,50,55,52,43,100,91,74,30.24,30.15,30.09,10,8,2,14,7,22,0.01,8,Rain,53
2012-10-10,68,60,53,63,53,41,100,86,51,30.08,29.94,29.79,10,6,2,15,8,24,0.29,6,Rain,30
2012-10-11,59,52,46,38,34,31,61,51,36,30.20,30.12,29.96,10,10,10,15,9,24,0.00,0,,285
2012-10-12,59,50,43,43,37,24,86,63,44,30.42,30.18,30.08,10,10,10,13,7,21,0.00,2,,309
2012-10-13,52,43,34,41,28,22,76,53,36,30.53,30.45,30.32,10,10,10,12,6,,0.00,0,,204
2012-10-14,68,60,55,58,52,45,84,73,57,30.28,30.14,29.98,10,10,10,20,15,28,0.00,2,,222
2012-10-15,70,66,60,63,61,58,100,88,73,29.96,29.74,29.65,10,10,9,20,13,29,0.02,6,Rain,225
2012-10-16,60,54,46,57,40,35,93,59,42,29.92,29.78,29.64,10,10,10,18,10,32,0.00,2,Rain,323
2012-10-17,60,50,39,46,40,37,89,75,48,30.03,29.98,29.92,10,10,10,9,3,,0.00,0,,293
2012-10-18,64,53,43,56,50,41,96,78,60,30.06,30.02,29.94,10,10,8,15,5,22,0.00,4,Rain,124
2012-10-19,66,62,60,64,63,58,100,97,86,29.96,29.81,29.69,10,6,1,21,13,29,0.54,8,Rain,157
2012-10-20,70,62,54,64,56,38,100,84,40,29.83,29.71,29.67,10,5,0,16,6,23,0.00,5,Fog,223
2012-10-21,64,56,48,42,40,38,74,56,40,30.01,29.94,29.84,10,10,10,14,7,20,0.00,0,,291
2012-10-22,66,58,51,43,41,39,68,53,40,30.09,30.04,30.00,10,10,10,13,7,22,0.00,0,,298
2012-10-23,66,56,48,55,49,44,97,75,48,30.13,30.09,30.06,10,10,10,7,1,,0.01,4,Rain,312
2012-10-24,59,56,54,55,53,50,96,90,81,30.21,30.14,30.10,10,8,5,8,5,,0.05,8,Rain,51
2012-10-25,61,57,53,52,50,48,88,77,67,30.28,30.25,30.22,10,10,10,8,3,,0.00,8,,90
2012-10-26,64,60,55,57,55,52,96,83,68,30.24,30.19,30.12,10,10,10,9,2,,0.00,7,,134
2012-10-27,64,60,57,55,53,48,87,76,63,30.11,30.01,29.91,10,10,10,9,5,,0.00,4,,83
2012-10-28,57,56,53,51,48,40,86,73,53,29.90,29.80,29.65,10,10,5,24,14,38,0.00,6,Rain,47
2012-10-29,64,58,51,61,54,48,100,92,75,29.60,29.06,28.53,10,3,1,45,27,71,0.80,8,Rain,51
2012-10-30,55,55,51,50,49,48,92,82,77,29.45,29.27,29.06,10,9,2,36,28,53,0.03,8,Rain,168
2012-10-31,50,48,46,38,37,36,71,64,61,29.60,29.54,29.48,10,10,10,15,7,20,0.03,8,Rain,249